sensor_id;sensor_type;location;lat;lon;timestamp;P1;durP1;ratioP1;P2;durP2;ratioP2
40116;SDS011;25829;50.228;18.936;2023-08-21T00:02:49;10.38;;;8.32;;
40116;SDS011;25829;50.228;18.936;2023-08-21T00:05:52;9.93;;;9.00;;
40116;SDS011;25829;50.228;18.936;2023-08-21T00:08:53;12.48;;;9.13;;
40116;SDS011;25829;50.228;18.936;2023-08-21T00:11:54;10.13;;;9.23;;
40116;SDS011;25829;50.228;18.936;2023-08-21T00:14:55;9.60;;;8.70;;
40116;SDS011;25829;50.228;18.936;2023-08-21T00:17:55;10.35;;;9.38;;
40116;SDS011;25829;50.228;18.936;2023-08-21T00:21:00;10.32;;;9.25;;
40116;SDS011;25829;50.228;18.936;2023-08-21T00:24:03;9.88;;;8.95;;
40116;SDS011;25829;50.228;18.936;2023-08-21T00:27:05;10.10;;;8.75;;
40116;SDS011;25829;50.228;18.936;2023-08-21T00:30:06;9.80;;;8.57;;
40116;SDS011;25829;50.228;18.936;2023-08-21T00:33:16;9.75;;;8.90;;
40116;SDS011;25829;50.228;18.936;2023-08-21T00:36:17;11.15;;;9.10;;
40116;SDS011;25829;50.228;18.936;2023-08-21T00:39:23;10.32;;;9.30;;
40116;SDS011;25829;50.228;18.936;2023-08-21T00:42:27;10.00;;;9.00;;
40116;SDS011;25829;50.228;18.936;2023-08-21T00:45:28;10.25;;;9.25;;
40116;SDS011;25829;50.228;18.936;2023-08-21T00:48:29;9.75;;;8.75;;
40116;SDS011;25829;50.228;18.936;2023-08-21T00:51:35;10.70;;;8.95;;
40116;SDS011;25829;50.228;18.936;2023-08-21T00:54:39;11.25;;;9.27;;
40116;SDS011;25829;50.228;18.936;2023-08-21T00:57:44;10.38;;;9.38;;
40116;SDS011;25829;50.228;18.936;2023-08-21T01:00:46;10.02;;;8.98;;
40116;SDS011;25829;50.228;18.936;2023-08-21T01:03:50;11.63;;;9.02;;
40116;SDS011;25829;50.228;18.936;2023-08-21T01:06:51;10.23;;;9.20;;
40116;SDS011;25829;50.228;18.936;2023-08-21T01:16:53;12.77;;;9.60;;
40116;SDS011;25829;50.228;18.936;2023-08-21T01:19:57;9.77;;;8.88;;
40116;SDS011;25829;50.228;18.936;2023-08-21T01:23:03;10.63;;;9.48;;
40116;SDS011;25829;50.228;18.936;2023-08-21T01:26:10;15.20;;;10.38;;
40116;SDS011;25829;50.228;18.936;2023-08-21T01:29:11;9.80;;;8.80;;
40116;SDS011;25829;50.228;18.936;2023-08-21T01:35:42;11.27;;;9.85;;
40116;SDS011;25829;50.228;18.936;2023-08-21T01:38:44;12.35;;;9.48;;
40116;SDS011;25829;50.228;18.936;2023-08-21T01:41:49;11.55;;;9.30;;
40116;SDS011;25829;50.228;18.936;2023-08-21T01:44:49;10.55;;;9.48;;
40116;SDS011;25829;50.228;18.936;2023-08-21T01:47:50;10.27;;;9.30;;
40116;SDS011;25829;50.228;18.936;2023-08-21T01:50:51;11.35;;;10.10;;
40116;SDS011;25829;50.228;18.936;2023-08-21T01:53:52;10.32;;;9.13;;
40116;SDS011;25829;50.228;18.936;2023-08-21T01:56:56;10.32;;;9.00;;
40116;SDS011;25829;50.228;18.936;2023-08-21T02:00:00;10.25;;;9.10;;
40116;SDS011;25829;50.228;18.936;2023-08-21T02:03:17;11.18;;;9.30;;
40116;SDS011;25829;50.228;18.936;2023-08-21T02:06:18;11.50;;;9.60;;
40116;SDS011;25829;50.228;18.936;2023-08-21T02:09:22;11.55;;;9.88;;
40116;SDS011;25829;50.228;18.936;2023-08-21T02:44:36;12.90;;;10.40;;
40116;SDS011;25829;50.228;18.936;2023-08-21T02:47:37;11.07;;;9.98;;
40116;SDS011;25829;50.228;18.936;2023-08-21T02:50:38;12.25;;;10.02;;
40116;SDS011;25829;50.228;18.936;2023-08-21T02:53:39;15.07;;;11.27;;
40116;SDS011;25829;50.228;18.936;2023-08-21T02:57:15;10.90;;;9.85;;
40116;SDS011;25829;50.228;18.936;2023-08-21T03:00:54;11.05;;;9.85;;
40116;SDS011;25829;50.228;18.936;2023-08-21T03:03:58;10.80;;;9.80;;
40116;SDS011;25829;50.228;18.936;2023-08-21T03:07:24;11.35;;;10.00;;
40116;SDS011;25829;50.228;18.936;2023-08-21T03:10:25;10.45;;;9.40;;
40116;SDS011;25829;50.228;18.936;2023-08-21T03:13:40;12.63;;;11.32;;
40116;SDS011;25829;50.228;18.936;2023-08-21T03:16:43;14.32;;;11.27;;
40116;SDS011;25829;50.228;18.936;2023-08-21T03:19:52;12.45;;;11.20;;
40116;SDS011;25829;50.228;18.936;2023-08-21T03:23:26;12.40;;;9.73;;
40116;SDS011;25829;50.228;18.936;2023-08-21T03:26:31;10.57;;;9.38;;
40116;SDS011;25829;50.228;18.936;2023-08-21T03:29:32;11.07;;;9.95;;
40116;SDS011;25829;50.228;18.936;2023-08-21T03:32:33;10.80;;;9.70;;
40116;SDS011;25829;50.228;18.936;2023-08-21T03:35:34;11.10;;;9.77;;
40116;SDS011;25829;50.228;18.936;2023-08-21T03:38:38;11.88;;;9.90;;
40116;SDS011;25829;50.228;18.936;2023-08-21T03:42:02;11.18;;;10.00;;
40116;SDS011;25829;50.228;18.936;2023-08-21T03:45:09;10.35;;;9.10;;
40116;SDS011;25829;50.228;18.936;2023-08-21T03:48:23;11.15;;;9.77;;
40116;SDS011;25829;50.228;18.936;2023-08-21T03:51:27;10.85;;;9.75;;
40116;SDS011;25829;50.228;18.936;2023-08-21T03:54:44;11.13;;;10.05;;
40116;SDS011;25829;50.228;18.936;2023-08-21T03:57:58;12.32;;;11.10;;
40116;SDS011;25829;50.228;18.936;2023-08-21T04:01:08;12.38;;;10.80;;
40116;SDS011;25829;50.228;18.936;2023-08-21T04:04:20;11.30;;;9.60;;
40116;SDS011;25829;50.228;18.936;2023-08-21T04:07:32;11.20;;;10.10;;
40116;SDS011;25829;50.228;18.936;2023-08-21T04:10:49;11.20;;;9.90;;
40116;SDS011;25829;50.228;18.936;2023-08-21T04:13:50;12.20;;;10.60;;
40116;SDS011;25829;50.228;18.936;2023-08-21T04:17:08;11.80;;;10.25;;
40116;SDS011;25829;50.228;18.936;2023-08-21T04:23:33;13.77;;;10.68;;
40116;SDS011;25829;50.228;18.936;2023-08-21T04:26:42;11.98;;;10.70;;
40116;SDS011;25829;50.228;18.936;2023-08-21T04:30:45;12.05;;;10.75;;
40116;SDS011;25829;50.228;18.936;2023-08-21T04:34:15;16.02;;;11.30;;
40116;SDS011;25829;50.228;18.936;2023-08-21T04:37:23;12.05;;;10.75;;
40116;SDS011;25829;50.228;18.936;2023-08-21T04:40:53;12.25;;;11.10;;
40116;SDS011;25829;50.228;18.936;2023-08-21T04:59:28;14.10;;;11.05;;
40116;SDS011;25829;50.228;18.936;2023-08-21T05:02:46;13.27;;;11.63;;
40116;SDS011;25829;50.228;18.936;2023-08-21T05:06:17;13.38;;;11.60;;
40116;SDS011;25829;50.228;18.936;2023-08-21T05:09:42;13.82;;;12.25;;
40116;SDS011;25829;50.228;18.936;2023-08-21T05:12:56;13.45;;;11.93;;
40116;SDS011;25829;50.228;18.936;2023-08-21T05:16:29;16.30;;;12.05;;
40116;SDS011;25829;50.228;18.936;2023-08-21T05:20:29;12.38;;;11.07;;
40116;SDS011;25829;50.228;18.936;2023-08-21T05:24:17;12.60;;;11.35;;
40116;SDS011;25829;50.228;18.936;2023-08-21T05:46:11;14.32;;;12.30;;
40116;SDS011;25829;50.228;18.936;2023-08-21T05:59:30;14.10;;;12.70;;
40116;SDS011;25829;50.228;18.936;2023-08-21T06:02:34;15.93;;;12.23;;
40116;SDS011;25829;50.228;18.936;2023-08-21T06:06:08;13.60;;;12.20;;
40116;SDS011;25829;50.228;18.936;2023-08-21T06:09:26;16.30;;;12.00;;
40116;SDS011;25829;50.228;18.936;2023-08-21T06:12:40;13.05;;;11.40;;
40116;SDS011;25829;50.228;18.936;2023-08-21T06:20:07;14.40;;;11.75;;
40116;SDS011;25829;50.228;18.936;2023-08-21T06:23:21;14.05;;;12.65;;
40116;SDS011;25829;50.228;18.936;2023-08-21T06:26:50;13.88;;;12.02;;
40116;SDS011;25829;50.228;18.936;2023-08-21T06:30:17;13.40;;;11.65;;
40116;SDS011;25829;50.228;18.936;2023-08-21T06:33:30;14.70;;;11.30;;
40116;SDS011;25829;50.228;18.936;2023-08-21T06:36:50;16.15;;;12.02;;
40116;SDS011;25829;50.228;18.936;2023-08-21T06:40:24;14.60;;;11.88;;
40116;SDS011;25829;50.228;18.936;2023-08-21T07:00:31;15.38;;;12.95;;
40116;SDS011;25829;50.228;18.936;2023-08-21T07:03:41;17.98;;;13.35;;
40116;SDS011;25829;50.228;18.936;2023-08-21T07:10:44;15.38;;;13.77;;
40116;SDS011;25829;50.228;18.936;2023-08-21T07:13:53;18.80;;;13.43;;
40116;SDS011;25829;50.228;18.936;2023-08-21T07:16:54;18.15;;;12.88;;
40116;SDS011;25829;50.228;18.936;2023-08-21T07:20:01;16.17;;;13.10;;
40116;SDS011;25829;50.228;18.936;2023-08-21T07:23:07;15.88;;;12.00;;
40116;SDS011;25829;50.228;18.936;2023-08-21T07:26:29;20.40;;;12.48;;
40116;SDS011;25829;50.228;18.936;2023-08-21T07:29:35;15.20;;;12.15;;
40116;SDS011;25829;50.228;18.936;2023-08-21T07:32:42;16.90;;;12.32;;
40116;SDS011;25829;50.228;18.936;2023-08-21T07:35:46;17.60;;;13.23;;
40116;SDS011;25829;50.228;18.936;2023-08-21T07:38:50;15.43;;;12.98;;
40116;SDS011;25829;50.228;18.936;2023-08-21T07:41:54;15.98;;;12.10;;
40116;SDS011;25829;50.228;18.936;2023-08-21T07:44:55;15.52;;;12.40;;
40116;SDS011;25829;50.228;18.936;2023-08-21T07:47:56;19.17;;;13.27;;
40116;SDS011;25829;50.228;18.936;2023-08-21T07:50:57;18.88;;;13.45;;
40116;SDS011;25829;50.228;18.936;2023-08-21T07:53:58;18.17;;;12.63;;
40116;SDS011;25829;50.228;18.936;2023-08-21T07:56:59;16.50;;;14.75;;
40116;SDS011;25829;50.228;18.936;2023-08-21T08:00:03;19.38;;;13.80;;
40116;SDS011;25829;50.228;18.936;2023-08-21T08:03:16;16.33;;;13.48;;
40116;SDS011;25829;50.228;18.936;2023-08-21T08:06:17;17.85;;;15.20;;
40116;SDS011;25829;50.228;18.936;2023-08-21T08:09:43;14.77;;;12.43;;
40116;SDS011;25829;50.228;18.936;2023-08-21T08:12:44;14.82;;;13.15;;
40116;SDS011;25829;50.228;18.936;2023-08-21T08:15:44;12.65;;;11.30;;
40116;SDS011;25829;50.228;18.936;2023-08-21T08:18:51;12.88;;;11.57;;
40116;SDS011;25829;50.228;18.936;2023-08-21T08:21:51;17.38;;;12.25;;
40116;SDS011;25829;50.228;18.936;2023-08-21T08:24:52;22.40;;;12.55;;
40116;SDS011;25829;50.228;18.936;2023-08-21T08:27:53;15.82;;;11.77;;
40116;SDS011;25829;50.228;18.936;2023-08-21T08:33:58;15.98;;;12.02;;
40116;SDS011;25829;50.228;18.936;2023-08-21T08:45:48;14.82;;;12.45;;
40116;SDS011;25829;50.228;18.936;2023-08-21T08:48:51;15.43;;;12.77;;
40116;SDS011;25829;50.228;18.936;2023-08-21T08:51:53;17.33;;;12.48;;
40116;SDS011;25829;50.228;18.936;2023-08-21T08:54:54;14.65;;;13.13;;
40116;SDS011;25829;50.228;18.936;2023-08-21T08:57:58;14.93;;;12.73;;
40116;SDS011;25829;50.228;18.936;2023-08-21T09:00:59;15.05;;;12.35;;
40116;SDS011;25829;50.228;18.936;2023-08-21T09:04:00;16.77;;;13.32;;
40116;SDS011;25829;50.228;18.936;2023-08-21T09:07:08;16.20;;;12.88;;
40116;SDS011;25829;50.228;18.936;2023-08-21T09:10:16;16.40;;;12.60;;
40116;SDS011;25829;50.228;18.936;2023-08-21T09:13:20;17.00;;;12.38;;
40116;SDS011;25829;50.228;18.936;2023-08-21T09:16:21;15.55;;;12.77;;
40116;SDS011;25829;50.228;18.936;2023-08-21T09:19:23;14.07;;;12.30;;
40116;SDS011;25829;50.228;18.936;2023-08-21T09:22:24;14.07;;;12.68;;
40116;SDS011;25829;50.228;18.936;2023-08-21T09:25:28;14.55;;;12.88;;
40116;SDS011;25829;50.228;18.936;2023-08-21T09:28:28;15.57;;;12.45;;
40116;SDS011;25829;50.228;18.936;2023-08-21T09:31:32;13.93;;;12.48;;
40116;SDS011;25829;50.228;18.936;2023-08-21T09:34:34;17.70;;;11.90;;
40116;SDS011;25829;50.228;18.936;2023-08-21T09:37:39;15.63;;;13.90;;
40116;SDS011;25829;50.228;18.936;2023-08-21T09:40:43;17.08;;;13.98;;
40116;SDS011;25829;50.228;18.936;2023-08-21T09:44:00;16.35;;;13.52;;
40116;SDS011;25829;50.228;18.936;2023-08-21T09:47:03;21.30;;;14.75;;
40116;SDS011;25829;50.228;18.936;2023-08-21T09:50:05;15.98;;;12.63;;
40116;SDS011;25829;50.228;18.936;2023-08-21T09:53:06;18.92;;;13.00;;
40116;SDS011;25829;50.228;18.936;2023-08-21T10:27:37;14.70;;;10.60;;
40116;SDS011;25829;50.228;18.936;2023-08-21T10:48:24;13.85;;;11.30;;
40116;SDS011;25829;50.228;18.936;2023-08-21T10:51:25;15.02;;;11.23;;
40116;SDS011;25829;50.228;18.936;2023-08-21T10:54:41;12.18;;;10.85;;
40116;SDS011;25829;50.228;18.936;2023-08-21T10:57:49;12.23;;;10.70;;
40116;SDS011;25829;50.228;18.936;2023-08-21T11:08:17;12.10;;;10.90;;
40116;SDS011;25829;50.228;18.936;2023-08-21T11:11:24;12.35;;;11.10;;
40116;SDS011;25829;50.228;18.936;2023-08-21T11:19:21;13.20;;;11.00;;
40116;SDS011;25829;50.228;18.936;2023-08-21T11:22:28;13.50;;;11.75;;
40116;SDS011;25829;50.228;18.936;2023-08-21T11:25:30;13.38;;;11.30;;
40116;SDS011;25829;50.228;18.936;2023-08-21T11:28:35;15.75;;;11.45;;
40116;SDS011;25829;50.228;18.936;2023-08-21T11:31:36;14.18;;;11.20;;
40116;SDS011;25829;50.228;18.936;2023-08-21T11:34:37;12.73;;;11.40;;
40116;SDS011;25829;50.228;18.936;2023-08-21T11:37:43;12.88;;;11.57;;
40116;SDS011;25829;50.228;18.936;2023-08-21T11:40:51;13.50;;;11.25;;
40116;SDS011;25829;50.228;18.936;2023-08-21T11:43:53;13.65;;;11.73;;
40116;SDS011;25829;50.228;18.936;2023-08-21T12:02:33;13.15;;;11.40;;
40116;SDS011;25829;50.228;18.936;2023-08-21T12:05:34;15.98;;;12.60;;
40116;SDS011;25829;50.228;18.936;2023-08-21T12:08:35;19.63;;;12.77;;
40116;SDS011;25829;50.228;18.936;2023-08-21T12:11:36;15.20;;;12.43;;
40116;SDS011;25829;50.228;18.936;2023-08-21T12:14:42;14.07;;;12.57;;
40116;SDS011;25829;50.228;18.936;2023-08-21T12:25:52;13.90;;;11.63;;
40116;SDS011;25829;50.228;18.936;2023-08-21T12:28:55;13.23;;;10.63;;
40116;SDS011;25829;50.228;18.936;2023-08-21T12:50:03;15.38;;;11.70;;
40116;SDS011;25829;50.228;18.936;2023-08-21T12:53:05;17.92;;;12.27;;
40116;SDS011;25829;50.228;18.936;2023-08-21T12:56:06;11.65;;;10.35;;
40116;SDS011;25829;50.228;18.936;2023-08-21T12:59:07;16.73;;;10.75;;
40116;SDS011;25829;50.228;18.936;2023-08-21T13:02:10;11.40;;;10.30;;
40116;SDS011;25829;50.228;18.936;2023-08-21T13:41:32;13.98;;;12.40;;
40116;SDS011;25829;50.228;18.936;2023-08-21T13:48:25;17.30;;;13.07;;
40116;SDS011;25829;50.228;18.936;2023-08-21T13:51:26;13.00;;;11.65;;
40116;SDS011;25829;50.228;18.936;2023-08-21T13:54:26;13.63;;;12.23;;
40116;SDS011;25829;50.228;18.936;2023-08-21T13:57:28;12.80;;;11.30;;
40116;SDS011;25829;50.228;18.936;2023-08-21T14:00:29;13.65;;;11.13;;
40116;SDS011;25829;50.228;18.936;2023-08-21T14:03:30;15.50;;;11.52;;
40116;SDS011;25829;50.228;18.936;2023-08-21T14:06:30;14.15;;;12.02;;
40116;SDS011;25829;50.228;18.936;2023-08-21T14:09:31;12.43;;;11.00;;
40116;SDS011;25829;50.228;18.936;2023-08-21T14:12:32;16.10;;;10.98;;
40116;SDS011;25829;50.228;18.936;2023-08-21T14:15:33;16.40;;;11.35;;
40116;SDS011;25829;50.228;18.936;2023-08-21T14:35:52;11.43;;;9.35;;
40116;SDS011;25829;50.228;18.936;2023-08-21T14:38:53;12.63;;;9.93;;
40116;SDS011;25829;50.228;18.936;2023-08-21T14:41:57;13.85;;;10.15;;
40116;SDS011;25829;50.228;18.936;2023-08-21T14:45:01;13.63;;;9.70;;
40116;SDS011;25829;50.228;18.936;2023-08-21T14:48:03;10.65;;;9.65;;
40116;SDS011;25829;50.228;18.936;2023-08-21T14:51:04;10.45;;;9.35;;
40116;SDS011;25829;50.228;18.936;2023-08-21T14:54:05;11.30;;;9.88;;
40116;SDS011;25829;50.228;18.936;2023-08-21T14:57:09;10.05;;;8.98;;
40116;SDS011;25829;50.228;18.936;2023-08-21T15:00:09;10.55;;;8.93;;
40116;SDS011;25829;50.228;18.936;2023-08-21T15:03:11;10.52;;;9.43;;
40116;SDS011;25829;50.228;18.936;2023-08-21T15:16:51;10.80;;;8.57;;
40116;SDS011;25829;50.228;18.936;2023-08-21T15:19:52;14.18;;;9.63;;
40116;SDS011;25829;50.228;18.936;2023-08-21T15:22:53;10.75;;;9.50;;
40116;SDS011;25829;50.228;18.936;2023-08-21T15:25:54;13.35;;;9.65;;
40116;SDS011;25829;50.228;18.936;2023-08-21T15:28:55;11.13;;;9.35;;
40116;SDS011;25829;50.228;18.936;2023-08-21T15:31:55;10.25;;;9.18;;
40116;SDS011;25829;50.228;18.936;2023-08-21T15:47:28;11.00;;;9.90;;
40116;SDS011;25829;50.228;18.936;2023-08-21T15:50:29;12.20;;;9.88;;
40116;SDS011;25829;50.228;18.936;2023-08-21T16:01:50;10.82;;;9.82;;
40116;SDS011;25829;50.228;18.936;2023-08-21T16:11:30;10.82;;;9.82;;
40116;SDS011;25829;50.228;18.936;2023-08-21T16:19:21;10.60;;;9.30;;
40116;SDS011;25829;50.228;18.936;2023-08-21T16:22:22;11.70;;;10.40;;
40116;SDS011;25829;50.228;18.936;2023-08-21T16:25:23;12.27;;;9.68;;
40116;SDS011;25829;50.228;18.936;2023-08-21T16:28:24;13.18;;;10.25;;
40116;SDS011;25829;50.228;18.936;2023-08-21T16:31:28;13.23;;;10.32;;
40116;SDS011;25829;50.228;18.936;2023-08-21T16:45:30;11.48;;;10.38;;
40116;SDS011;25829;50.228;18.936;2023-08-21T16:48:37;11.15;;;10.07;;
40116;SDS011;25829;50.228;18.936;2023-08-21T17:07:04;14.93;;;10.00;;
40116;SDS011;25829;50.228;18.936;2023-08-21T17:10:06;10.30;;;9.27;;
40116;SDS011;25829;50.228;18.936;2023-08-21T17:13:11;11.30;;;8.82;;
40116;SDS011;25829;50.228;18.936;2023-08-21T17:16:11;10.52;;;9.55;;
40116;SDS011;25829;50.228;18.936;2023-08-21T17:19:14;10.48;;;9.48;;
40116;SDS011;25829;50.228;18.936;2023-08-21T17:22:15;10.05;;;9.05;;
40116;SDS011;25829;50.228;18.936;2023-08-21T17:25:19;9.88;;;8.75;;
40116;SDS011;25829;50.228;18.936;2023-08-21T17:28:21;12.88;;;9.05;;
40116;SDS011;25829;50.228;18.936;2023-08-21T17:31:22;9.68;;;8.57;;
40116;SDS011;25829;50.228;18.936;2023-08-21T18:07:10;9.70;;;7.32;;
40116;SDS011;25829;50.228;18.936;2023-08-21T18:10:14;8.10;;;7.15;;
40116;SDS011;25829;50.228;18.936;2023-08-21T18:13:15;9.65;;;8.63;;
40116;SDS011;25829;50.228;18.936;2023-08-21T18:16:17;9.85;;;7.75;;
40116;SDS011;25829;50.228;18.936;2023-08-21T18:19:19;8.40;;;7.30;;
40116;SDS011;25829;50.228;18.936;2023-08-21T18:58:37;8.90;;;8.00;;
40116;SDS011;25829;50.228;18.936;2023-08-21T19:06:07;8.35;;;7.55;;
40116;SDS011;25829;50.228;18.936;2023-08-21T19:09:08;8.85;;;8.05;;
40116;SDS011;25829;50.228;18.936;2023-08-21T19:12:09;9.02;;;8.13;;
40116;SDS011;25829;50.228;18.936;2023-08-21T19:15:10;8.85;;;8.05;;
40116;SDS011;25829;50.228;18.936;2023-08-21T19:18:15;9.02;;;8.13;;
40116;SDS011;25829;50.228;18.936;2023-08-21T19:38:00;10.85;;;9.73;;
40116;SDS011;25829;50.228;18.936;2023-08-21T19:41:07;10.48;;;9.18;;
40116;SDS011;25829;50.228;18.936;2023-08-21T19:44:11;11.68;;;8.98;;
40116;SDS011;25829;50.228;18.936;2023-08-21T19:47:15;13.02;;;9.80;;
40116;SDS011;25829;50.228;18.936;2023-08-21T19:50:17;10.48;;;9.48;;
40116;SDS011;25829;50.228;18.936;2023-08-21T19:53:17;12.52;;;9.07;;
40116;SDS011;25829;50.228;18.936;2023-08-21T19:56:21;10.02;;;8.82;;
40116;SDS011;25829;50.228;18.936;2023-08-21T19:59:25;10.05;;;8.77;;
40116;SDS011;25829;50.228;18.936;2023-08-21T20:02:26;9.15;;;8.25;;
40116;SDS011;25829;50.228;18.936;2023-08-21T20:05:27;10.02;;;9.02;;
40116;SDS011;25829;50.228;18.936;2023-08-21T20:21:57;9.32;;;8.45;;
40116;SDS011;25829;50.228;18.936;2023-08-21T20:24:58;10.80;;;8.52;;
40116;SDS011;25829;50.228;18.936;2023-08-21T20:28:03;11.07;;;8.82;;
40116;SDS011;25829;50.228;18.936;2023-08-21T20:31:07;9.85;;;8.90;;
40116;SDS011;25829;50.228;18.936;2023-08-21T20:34:25;9.50;;;8.50;;
40116;SDS011;25829;50.228;18.936;2023-08-21T20:50:59;10.13;;;9.10;;
40116;SDS011;25829;50.228;18.936;2023-08-21T20:54:03;11.55;;;8.82;;
40116;SDS011;25829;50.228;18.936;2023-08-21T20:57:07;9.88;;;8.73;;
40116;SDS011;25829;50.228;18.936;2023-08-21T21:00:08;11.02;;;9.25;;
40116;SDS011;25829;50.228;18.936;2023-08-21T21:03:09;12.23;;;9.75;;
40116;SDS011;25829;50.228;18.936;2023-08-21T21:06:10;11.57;;;10.32;;
40116;SDS011;25829;50.228;18.936;2023-08-21T21:39:40;13.25;;;9.38;;
40116;SDS011;25829;50.228;18.936;2023-08-21T21:42:40;9.60;;;8.70;;
40116;SDS011;25829;50.228;18.936;2023-08-21T21:45:45;9.80;;;8.85;;
40116;SDS011;25829;50.228;18.936;2023-08-21T21:48:45;9.63;;;8.73;;
40116;SDS011;25829;50.228;18.936;2023-08-21T22:23:09;9.13;;;8.18;;
40116;SDS011;25829;50.228;18.936;2023-08-21T22:26:10;9.85;;;8.02;;
40116;SDS011;25829;50.228;18.936;2023-08-21T22:29:11;8.18;;;7.32;;
40116;SDS011;25829;50.228;18.936;2023-08-21T22:32:21;9.10;;;8.18;;
40116;SDS011;25829;50.228;18.936;2023-08-21T22:35:23;9.40;;;7.85;;
40116;SDS011;25829;50.228;18.936;2023-08-21T22:55:22;9.65;;;7.70;;
40116;SDS011;25829;50.228;18.936;2023-08-21T22:58:22;8.60;;;7.72;;
40116;SDS011;25829;50.228;18.936;2023-08-21T23:01:23;9.00;;;7.82;;
40116;SDS011;25829;50.228;18.936;2023-08-21T23:04:24;8.93;;;7.97;;
40116;SDS011;25829;50.228;18.936;2023-08-21T23:07:25;9.98;;;8.13;;
40116;SDS011;25829;50.228;18.936;2023-08-21T23:10:26;8.52;;;7.57;;
40116;SDS011;25829;50.228;18.936;2023-08-21T23:13:27;9.40;;;7.95;;
40116;SDS011;25829;50.228;18.936;2023-08-21T23:16:28;10.73;;;7.85;;
40116;SDS011;25829;50.228;18.936;2023-08-21T23:19:29;8.93;;;8.13;;
40116;SDS011;25829;50.228;18.936;2023-08-21T23:22:33;10.07;;;7.75;;
40116;SDS011;25829;50.228;18.936;2023-08-21T23:25:34;9.52;;;7.78;;
40116;SDS011;25829;50.228;18.936;2023-08-21T23:28:36;8.68;;;7.78;;
40116;SDS011;25829;50.228;18.936;2023-08-21T23:31:36;8.88;;;7.78;;
40116;SDS011;25829;50.228;18.936;2023-08-21T23:34:37;8.27;;;7.47;;
40116;SDS011;25829;50.228;18.936;2023-08-21T23:37:38;9.38;;;8.48;;
40116;SDS011;25829;50.228;18.936;2023-08-21T23:54:06;8.63;;;7.82;;
40116;SDS011;25829;50.228;18.936;2023-08-21T23:57:07;8.18;;;7.38;;
